createdAt,value
2019-04-26T00:02:57.873Z,15.87
2019-04-26T00:06:01.816Z,19.13
2019-04-26T00:09:25.127Z,17.50
2019-04-26T00:12:48.287Z,21.60
2019-04-26T00:15:53.928Z,22.93
2019-04-26T00:18:57.787Z,23.13
2019-04-26T00:22:01.674Z,16.43
2019-04-26T00:25:06.813Z,17.80
2019-04-26T00:28:11.734Z,24.73
2019-04-26T00:31:17.147Z,19.53
2019-04-26T00:34:21.702Z,22.63
2019-04-26T00:37:25.571Z,18.50
2019-04-26T00:40:29.458Z,14.63
2019-04-26T00:43:33.528Z,18.17
2019-04-26T00:46:38.855Z,14.67
2019-04-26T00:49:43.965Z,16.93
2019-04-26T00:52:48.699Z,24.60
2019-04-26T00:55:53.223Z,25.47
2019-04-26T00:58:57.199Z,22.27
2019-04-26T01:02:02.688Z,17.70
2019-04-26T01:05:07.075Z,20.43
2019-04-26T01:08:10.916Z,18.17
2019-04-26T01:11:16.220Z,17.33
2019-04-26T01:14:20.450Z,23.10
2019-04-26T01:17:24.601Z,22.37
2019-04-26T01:20:30.223Z,24.27
2019-04-26T01:23:37.079Z,17.93
2019-04-26T01:26:41.589Z,17.10
2019-04-26T01:29:48.175Z,19.07
2019-04-26T01:32:52.405Z,17.03
2019-04-26T01:35:56.889Z,14.30
2019-04-26T01:39:07.902Z,17.03
2019-04-26T01:42:22.690Z,20.77
2019-04-26T01:45:43.850Z,28.37
2019-04-26T01:48:50.667Z,19.67
2019-04-26T01:52:00.479Z,30.57
2019-04-26T01:55:06.855Z,25.80
2019-04-26T01:58:10.701Z,31.60
2019-04-26T02:01:22.623Z,41.17
2019-04-26T02:04:29.867Z,35.40
2019-04-26T02:07:38.193Z,43.97
2019-04-26T02:10:41.986Z,32.73
2019-04-26T02:13:46.104Z,31.00
2019-04-26T02:16:50.041Z,35.93
2019-04-26T02:19:54.816Z,36.23
2019-04-26T02:23:06.113Z,33.93
2019-04-26T02:26:28.305Z,33.90
2019-04-26T02:29:32.744Z,36.27
2019-04-26T02:32:37.476Z,31.73
2019-04-26T02:35:41.405Z,29.70
2019-04-26T02:38:46.265Z,37.33
2019-04-26T02:41:53.297Z,32.10
2019-04-26T02:45:22.723Z,27.73
2019-04-26T02:48:32.691Z,27.43
2019-04-26T02:51:39.547Z,26.23
2019-04-26T02:54:46.317Z,34.20
2019-04-26T02:57:53.237Z,28.60
2019-04-26T03:00:59.824Z,27.80
2019-04-26T03:04:03.845Z,39.53
2019-04-26T03:07:10.583Z,30.23
2019-04-26T03:10:14.681Z,33.20
2019-04-26T03:13:22.299Z,36.20
2019-04-26T03:16:32.673Z,31.80
2019-04-26T03:19:55.668Z,30.27
2019-04-26T03:23:08.237Z,34.27
2019-04-26T03:26:23.219Z,34.07
2019-04-26T03:29:31.863Z,29.67
2019-04-26T03:32:46.083Z,33.23
2019-04-26T03:36:03.530Z,28.23
2019-04-26T03:39:11.022Z,29.20
2019-04-26T03:42:37.211Z,38.90
2019-04-26T03:45:52.670Z,35.10
2019-04-26T03:49:21.867Z,42.47
2019-04-26T03:52:45.413Z,37.80
2019-04-26T03:56:04.563Z,38.67
2019-04-26T03:59:12.905Z,39.17
2019-04-26T04:02:26.774Z,32.97
2019-04-26T04:05:37.278Z,31.23
2019-04-26T04:08:55.376Z,33.90
2019-04-26T04:12:26.644Z,30.13
2019-04-26T04:15:33.599Z,30.73
2019-04-26T04:18:41.780Z,31.10
2019-04-26T04:22:03.777Z,34.13
2019-04-26T04:25:19.508Z,29.40
2019-04-26T04:28:39.848Z,34.67
2019-04-26T04:31:49.450Z,38.77
2019-04-26T04:34:56.094Z,34.07
2019-04-26T04:38:09.621Z,26.60
2019-04-26T04:41:33.539Z,33.00
2019-04-26T04:45:12.969Z,28.67
2019-04-26T04:48:36.267Z,27.57
2019-04-26T04:52:07.460Z,27.40
2019-04-26T04:55:19.609Z,30.03
2019-04-26T04:58:28.876Z,33.40
2019-04-26T05:02:07.473Z,31.63
2019-04-26T05:05:24.406Z,28.73
2019-04-26T05:08:42.918Z,29.80
2019-04-26T05:11:56.627Z,28.07
2019-04-26T05:15:13.861Z,27.53
2019-04-26T05:18:46.589Z,22.85
2019-04-26T05:22:04.647Z,28.52
2019-04-26T05:25:15.454Z,26.10
2019-04-26T05:28:41.568Z,37.40
2019-04-26T05:31:56.859Z,19.37
2019-04-26T05:35:46.239Z,23.32
2019-04-26T05:39:09.214Z,23.45
2019-04-26T05:42:35.295Z,25.32
2019-04-26T05:46:22.465Z,22.40
2019-04-26T05:49:42.565Z,29.60
2019-04-26T05:53:07.110Z,19.90
2019-04-26T05:56:30.412Z,23.98
2019-04-26T05:59:42.929Z,26.17
2019-04-26T06:03:20.094Z,31.07
2019-04-26T06:06:34.397Z,20.70
2019-04-26T06:09:54.513Z,24.95
2019-04-26T06:13:11.508Z,15.78
2019-04-26T06:16:31.187Z,17.73
2019-04-26T06:20:02.575Z,10.65
2019-04-26T06:23:39.376Z,10.78
2019-04-26T06:27:13.362Z,13.08
2019-04-26T06:30:23.587Z,13.93
2019-04-26T06:33:36.096Z,16.75
2019-04-26T06:36:54.248Z,14.10
2019-04-26T06:40:16.386Z,13.05
2019-04-26T06:43:26.486Z,16.40
2019-04-26T06:46:34.940Z,13.90
2019-04-26T06:49:49.024Z,16.10
2019-04-26T06:53:14.031Z,11.18
2019-04-26T06:56:34.573Z,13.58
2019-04-26T07:00:02.368Z,12.13
2019-04-26T07:03:17.753Z,12.55
2019-04-26T07:06:51.242Z,15.28
2019-04-26T07:10:04.080Z,18.20
2019-04-26T07:13:40.933Z,9.05
2019-04-26T07:16:50.715Z,14.65
2019-04-26T07:20:13.089Z,15.13
2019-04-26T07:23:48.003Z,16.42
2019-04-26T07:26:57.500Z,15.32
2019-04-26T07:30:07.262Z,11.35
2019-04-26T07:33:33.934Z,14.68
2019-04-26T07:36:57.341Z,7.33
2019-04-26T07:40:09.175Z,15.40
2019-04-26T07:43:29.467Z,13.20
2019-04-26T07:46:55.888Z,12.10
2019-04-26T07:50:18.182Z,14.13
2019-04-26T07:53:46.719Z,11.85
2019-04-26T07:57:12.845Z,11.55
2019-04-26T08:00:27.241Z,11.75
2019-04-26T08:03:44.461Z,10.63
2019-04-26T08:07:08.219Z,11.40
2019-04-26T08:10:19.419Z,11.90
2019-04-26T08:13:27.205Z,10.53
2019-04-26T08:16:37.728Z,12.30
2019-04-26T08:19:57.149Z,19.35
2019-04-26T08:23:02.616Z,10.48
2019-04-26T08:26:13.382Z,14.35
2019-04-26T08:29:20.697Z,14.07
2019-04-26T08:32:28.243Z,15.43
2019-04-26T08:35:36.324Z,14.87
2019-04-26T08:38:40.648Z,13.58
2019-04-26T08:41:46.324Z,15.08
2019-04-26T08:44:56.196Z,15.32
2019-04-26T08:48:02.637Z,11.63
2019-04-26T08:51:09.380Z,8.05
2019-04-26T08:54:18.718Z,8.25
2019-04-26T08:57:25.483Z,7.83
2019-04-26T09:00:33.877Z,13.13
2019-04-26T09:03:44.858Z,10.98
2019-04-26T09:06:59.309Z,17.80
2019-04-26T09:10:10.836Z,14.18
2019-04-26T09:13:13.428Z,8.83
2019-04-26T09:16:19.063Z,16.48
2019-04-26T09:19:26.257Z,9.83
2019-04-26T09:22:32.700Z,9.90
2019-04-26T09:25:58.794Z,11.88
2019-04-26T09:29:02.811Z,14.78
2019-04-26T09:32:24.198Z,12.13
2019-04-26T09:35:28.557Z,9.05
2019-04-26T09:38:32.421Z,8.65
2019-04-26T09:41:36.247Z,12.23
2019-04-26T09:44:57.708Z,14.55
2019-04-26T09:48:03.777Z,13.10
2019-04-26T09:51:10.173Z,12.68
2019-04-26T09:54:15.407Z,14.35
2019-04-26T09:57:19.454Z,7.90
2019-04-26T10:00:25.630Z,12.00
2019-04-26T10:03:29.459Z,8.25
2019-04-26T10:06:33.308Z,12.33
2019-04-26T10:09:38.005Z,14.25
2019-04-26T10:13:01.778Z,13.70
2019-04-26T10:16:10.075Z,14.58
2019-04-26T10:19:14.428Z,13.05
2019-04-26T10:22:18.295Z,10.78
2019-04-26T10:25:22.307Z,15.08
2019-04-26T10:28:26.185Z,9.93
2019-04-26T10:31:30.116Z,14.95
2019-04-26T10:34:33.989Z,11.22
2019-04-26T10:37:39.674Z,8.85
2019-04-26T10:40:44.097Z,10.05
2019-04-26T10:43:48.514Z,13.98
2019-04-26T10:46:55.740Z,10.78
2019-04-26T10:49:59.315Z,15.25
2019-04-26T10:53:05.143Z,12.20
2019-04-26T10:56:10.637Z,10.85
2019-04-26T10:59:16.105Z,14.68
2019-04-26T11:02:20.118Z,11.00
2019-04-26T11:05:23.995Z,12.23
2019-04-26T11:08:27.842Z,12.20
2019-04-26T11:11:31.728Z,18.65
2019-04-26T11:14:35.813Z,12.88
2019-04-26T11:17:39.694Z,12.45
2019-04-26T11:20:45.598Z,7.45
2019-04-26T11:23:50.036Z,10.23
2019-04-26T11:26:53.977Z,14.63
2019-04-26T11:29:59.685Z,12.07
2019-04-26T11:33:03.341Z,14.38
2019-04-26T11:36:08.410Z,12.50
2019-04-26T11:39:14.118Z,8.55
2019-04-26T11:42:17.955Z,12.00
2019-04-26T11:45:22.263Z,11.33
2019-04-26T11:48:29.234Z,9.83
2019-04-26T11:51:33.566Z,11.15
2019-04-26T11:54:42.735Z,15.58
2019-04-26T11:57:47.518Z,15.63
2019-04-26T12:00:53.778Z,15.32
2019-04-26T12:04:15.614Z,18.45
2019-04-26T12:07:24.362Z,17.35
2019-04-26T12:10:30.143Z,26.05
2019-04-26T12:13:34.002Z,18.07
2019-04-26T12:16:48.031Z,17.48
2019-04-26T12:19:43.437Z,20.97
2019-04-26T12:22:47.222Z,25.62
2019-04-26T12:25:51.107Z,18.12
2019-04-26T12:28:54.961Z,24.98
2019-04-26T12:31:58.802Z,18.15
2019-04-26T12:35:02.628Z,24.55
2019-04-26T12:38:06.523Z,19.37
2019-04-26T12:41:11.611Z,23.02
2019-04-26T12:44:15.707Z,15.20
2019-04-26T12:47:21.097Z,21.95
2019-04-26T12:50:25.002Z,19.77
2019-04-26T12:53:31.181Z,23.95
2019-04-26T12:56:34.821Z,22.80
2019-04-26T12:59:44.314Z,22.07
2019-04-26T13:02:44.248Z,27.35
2019-04-26T13:05:49.741Z,27.82
2019-04-26T13:08:56.020Z,25.35
2019-04-26T13:12:03.665Z,23.15
2019-04-26T13:15:59.531Z,26.35
2019-04-26T13:19:03.381Z,14.13
2019-04-26T13:22:08.507Z,20.32
2019-04-26T13:25:17.398Z,20.90
2019-04-26T13:28:20.163Z,31.85
2019-04-26T13:31:31.113Z,24.05
2019-04-26T13:34:33.386Z,26.20
2019-04-26T13:37:35.697Z,13.68
2019-04-26T13:40:40.581Z,17.73
2019-04-26T13:43:44.810Z,21.23
2019-04-26T13:46:55.778Z,24.12
2019-04-26T13:50:12.764Z,23.95
2019-04-26T13:53:16.660Z,24.37
2019-04-26T13:56:20.524Z,22.55
2019-04-26T13:59:24.414Z,26.00
2019-04-26T14:02:28.255Z,31.40
2019-04-26T14:05:32.118Z,30.32
2019-04-26T14:08:35.965Z,21.77
2019-04-26T14:11:40.164Z,18.12
2019-04-26T14:14:44.084Z,30.08
2019-04-26T14:17:47.957Z,18.73
2019-04-26T14:20:54.867Z,31.02
2019-04-26T14:24:14.909Z,28.62
2019-04-26T14:27:20.350Z,44.55
2019-04-26T14:30:24.209Z,31.60
2019-04-26T14:33:30.952Z,29.82
2019-04-26T14:36:33.867Z,26.17
2019-04-26T14:39:49.591Z,37.53
2019-04-26T14:42:46.975Z,29.70
2019-04-26T14:45:55.665Z,39.88
2019-04-26T14:49:01.852Z,43.42
2019-04-26T14:51:59.768Z,34.43
2019-04-26T14:55:05.902Z,40.70
2019-04-26T14:58:09.643Z,28.67
2019-04-26T15:01:15.088Z,31.30
2019-04-26T15:04:33.131Z,26.87
2019-04-26T15:07:48.618Z,30.75
2019-04-26T15:10:46.772Z,38.50
2019-04-26T15:13:48.326Z,39.50
2019-04-26T15:16:52.232Z,36.38
2019-04-26T15:19:56.047Z,32.55
2019-04-26T15:22:59.919Z,37.05
2019-04-26T15:26:03.753Z,45.10
2019-04-26T15:29:07.644Z,40.43
2019-04-26T15:32:13.112Z,33.15
2019-04-26T15:35:18.011Z,36.98
2019-04-26T15:38:22.571Z,30.57
2019-04-26T15:41:33.821Z,39.48
2019-04-26T15:44:51.335Z,30.02
2019-04-26T15:47:59.521Z,34.25
2019-04-26T15:51:03.625Z,34.20
2019-04-26T15:54:07.477Z,33.40
2019-04-26T15:57:12.356Z,31.82
2019-04-26T16:00:16.295Z,32.98
2019-04-26T16:03:20.178Z,31.48
2019-04-26T16:06:24.053Z,39.83
2019-04-26T16:09:27.947Z,63.42
2019-04-26T16:12:32.112Z,37.35
2019-04-26T16:15:36.046Z,44.20
2019-04-26T16:18:39.904Z,40.85
2019-04-26T16:21:43.818Z,45.58
2019-04-26T16:24:47.665Z,30.30
2019-04-26T16:27:53.106Z,35.08
2019-04-26T16:30:58.516Z,37.28
2019-04-26T16:34:18.917Z,40.60
2019-04-26T16:37:23.836Z,90.03
2019-04-26T16:40:27.927Z,42.38
2019-04-26T16:43:39.576Z,45.92
2019-04-26T16:46:37.308Z,33.50
2019-04-26T16:49:44.183Z,73.65
2019-04-26T16:52:47.870Z,39.18
2019-04-26T16:55:53.291Z,38.48
2019-04-26T16:58:57.589Z,44.48
2019-04-26T17:02:02.485Z,42.90
2019-04-26T17:05:17.626Z,33.83
2019-04-26T17:08:13.052Z,31.57
2019-04-26T17:11:16.948Z,32.70
2019-04-26T17:14:22.491Z,33.13
2019-04-26T17:17:26.301Z,40.17
2019-04-26T17:20:30.156Z,43.90
2019-04-26T17:23:41.470Z,35.15
2019-04-26T17:26:46.929Z,36.48
2019-04-26T17:29:52.559Z,26.85
2019-04-26T17:32:56.295Z,42.55
2019-04-26T17:36:00.164Z,39.10
2019-04-26T17:39:05.530Z,45.28
2019-04-26T17:42:10.530Z,41.83
2019-04-26T17:45:14.579Z,33.38
2019-04-26T17:48:18.386Z,44.83
2019-04-26T17:51:23.263Z,31.82
2019-04-26T17:54:43.719Z,43.78
2019-04-26T17:57:36.648Z,38.98
2019-04-26T18:00:45.929Z,43.28
2019-04-26T18:03:50.742Z,45.40
2019-04-26T18:06:55.887Z,40.48
2019-04-26T18:09:56.912Z,42.95
2019-04-26T18:13:00.471Z,40.35
2019-04-26T18:16:04.339Z,44.45
2019-04-26T18:19:19.086Z,49.48
2019-04-26T18:22:36.252Z,45.40
2019-04-26T18:25:41.313Z,45.30
2019-04-26T18:28:50.021Z,39.50
2019-04-26T18:31:51.258Z,39.20
2019-04-26T18:34:55.151Z,36.48
2019-04-26T18:37:58.994Z,50.90
2019-04-26T18:41:03.697Z,47.58
2019-04-26T18:44:07.763Z,35.25
2019-04-26T18:47:16.241Z,40.80
2019-04-26T18:50:19.585Z,50.65
2019-04-26T18:53:36.660Z,36.00
2019-04-26T18:56:40.326Z,42.40
2019-04-26T18:59:44.813Z,47.13
2019-04-26T19:02:52.190Z,36.90
2019-04-26T19:05:54.222Z,37.27
2019-04-26T19:09:04.059Z,43.10
2019-04-26T19:12:04.037Z,45.57
2019-04-26T19:15:22.016Z,37.10
2019-04-26T19:18:44.935Z,37.57
2019-04-26T19:21:52.664Z,47.97
2019-04-26T19:24:57.573Z,44.40
2019-04-26T19:28:04.333Z,53.27
2019-04-26T19:31:07.202Z,39.03
2019-04-26T19:34:11.634Z,33.83
2019-04-26T19:37:15.568Z,50.13
2019-04-26T19:40:19.518Z,40.87
2019-04-26T19:43:31.013Z,45.70
2019-04-26T19:46:46.938Z,39.90
2019-04-26T19:50:09.798Z,40.07
2019-04-26T19:53:24.987Z,35.70
2019-04-26T19:56:31.521Z,37.97
2019-04-26T19:59:35.584Z,49.17
2019-04-26T20:02:39.574Z,42.97
2019-04-26T20:05:44.069Z,34.43
2019-04-26T20:08:49.674Z,44.93
2019-04-26T20:11:58.136Z,38.87
2019-04-26T20:14:59.287Z,45.57
2019-04-26T20:18:04.015Z,37.83
2019-04-26T20:21:12.399Z,39.37
2019-04-26T20:24:13.614Z,39.50
2019-04-26T20:27:20.498Z,41.87
2019-04-26T20:30:36.588Z,35.57
2019-04-26T20:33:42.269Z,39.73
2019-04-26T20:36:47.859Z,33.03
2019-04-26T20:39:55.840Z,44.27
2019-04-26T20:43:05.358Z,36.30
2019-04-26T20:46:14.153Z,48.23
2019-04-26T20:49:12.540Z,56.43
2019-04-26T20:52:20.315Z,47.03
2019-04-26T20:55:23.416Z,45.33
2019-04-26T20:58:27.449Z,42.87
2019-04-26T21:01:32.092Z,39.40
2019-04-26T21:04:38.464Z,41.00
2019-04-26T21:07:49.465Z,49.67
2019-04-26T21:10:47.716Z,50.37
2019-04-26T21:13:51.895Z,40.47
2019-04-26T21:16:55.904Z,48.70
2019-04-26T21:19:59.743Z,48.30
2019-04-26T21:23:03.840Z,33.27
2019-04-26T21:26:14.803Z,54.93
2019-04-26T21:29:24.366Z,43.03
2019-04-26T21:32:40.652Z,45.13
2019-04-26T21:35:45.673Z,42.60
2019-04-26T21:38:53.912Z,40.30
2019-04-26T21:42:03.519Z,44.40
2019-04-26T21:45:07.804Z,47.50
2019-04-26T21:48:13.617Z,31.67
2019-04-26T21:51:17.192Z,43.23
2019-04-26T21:54:21.055Z,42.30
2019-04-26T21:57:27.841Z,38.33
2019-04-26T22:00:33.307Z,42.43
2019-04-26T22:03:37.452Z,38.00
2019-04-26T22:06:41.340Z,37.20
2019-04-26T22:09:58.895Z,37.00
2019-04-26T22:13:05.699Z,41.67
2019-04-26T22:16:31.954Z,36.33
2019-04-26T22:19:32.554Z,48.60
2019-04-26T22:22:52.928Z,33.87
2019-04-26T22:26:00.273Z,33.33
2019-04-26T22:29:08.082Z,41.00
2019-04-26T22:32:11.525Z,37.00
2019-04-26T22:35:19.983Z,44.20
2019-04-26T22:38:26.538Z,34.97
2019-04-26T22:41:28.614Z,32.70
2019-04-26T22:44:34.603Z,31.67
2019-04-26T22:47:49.256Z,34.20
2019-04-26T22:50:58.561Z,36.20
2019-04-26T22:54:04.313Z,38.97
2019-04-26T22:57:08.260Z,36.47
2019-04-26T23:00:09.914Z,38.63
2019-04-26T23:03:14.128Z,40.37
2019-04-26T23:06:18.011Z,41.17
2019-04-26T23:09:23.343Z,28.03
2019-04-26T23:12:37.582Z,31.37
2019-04-26T23:16:00.692Z,40.80
2019-04-26T23:19:06.034Z,42.87
2019-04-26T23:22:09.985Z,36.27
2019-04-26T23:25:14.008Z,38.53
2019-04-26T23:28:17.814Z,43.87
2019-04-26T23:31:23.595Z,49.03
2019-04-26T23:34:27.201Z,44.77
2019-04-26T23:37:31.043Z,44.27
2019-04-26T23:40:34.892Z,33.67
2019-04-26T23:43:38.742Z,43.47
2019-04-26T23:46:43.252Z,35.50
2019-04-26T23:49:49.394Z,42.17
2019-04-26T23:52:53.116Z,33.80
2019-04-26T23:55:57.343Z,37.50
2019-04-26T23:59:01.173Z,45.27
